CheckWX is a tool to help pilots better visualize weather data.  It is not intended as a substitute for an official pre-flight weather briefing.

17:20:20 UTC

EGPE TAF
Inverness Airport
Inverness, United Kingdom
TAF EGPE 131356Z 1315/1324 22005KT 9999 FEW030 PROB30 1315/1324 0300 FZFG VV///

Nov-13@
15:00 UTC

Nov-13 @ 15:00 UTC

Nov-14@
00:00 UTC

Nov-14 @ 00:00 UTC

TAF EGPE 131356Z 1315/1324 22005KT 9999 FEW030
Wind
  • 220° at 5 KTS
Cloud Levels
  • Few at 3,000' AGL

Nov-13@
15:00 UTC

Nov-13 @ 15:00 UTC

Nov-14@
00:00 UTC

Nov-14 @ 00:00 UTC

PROB30 1315/1324 0300 FZFG VV///

Probable - 30% Likelihood

Probable - 30% Likelihood during this time.

Conditions
Freezing Fog